AirNav   Air Wisconsin pilot careers
 
 1727 users online  

0J0 Abbeville Municipal Airport
Abbeville, Alabama, USA

GOING TO ABBEVILLE?


FAA INFORMATION EFFECTIVE 29 MARCH 2018

Location

FAA Identifier: 0J0
Lat/Long: 31-36-00.8000N / 085-14-17.9100W
31-36.013333N / 085-14.298500W
31.6002222 / -85.2383083
(estimated)
Elevation: 469 ft. / 143.0 m (surveyed)
Variation: 01W (1985)
From city: 3 miles N of ABBEVILLE, AL
Time zone: UTC -5 (UTC -6 during Standard Time)
Zip code: 36310

Airport Operations

Airport use: Open to the public
Activation date: 08/1959
Control tower: no
ARTCC: JACKSONVILLE CENTER
FSS: ANNISTON FLIGHT SERVICE STATION
NOTAMs facility: ANB (NOTAM-D service available)
Attendance: UNATNDD
Wind indicator: lighted
Segmented circle: no
Lights: ACTVT MIRL RY 18/36 - CTAF.
Beacon: white-green (lighted land airport)
Operates sunset to sunrise.

Airport Communications

CTAF/UNICOM: 122.8
WX ASOS at DHN (20 nm SW): PHONE 334-983-5999
  • UNICOM IS LCTD AT POLICE STATION.

Nearby radio navigation aids

VOR radial/distance  VOR name  Freq  Var
RRSr026/21.4WIREGRASS VORTAC111.6002E
EUFr193/21.7EUFAULA VORTAC109.2002E
HEYr060/(25.2)HANCHEY VOR110.6003W
OZRr054/31.9CAIRNS VOR/DME111.2003W
EDNr065/(38.6)ENTERPRISE VOR116.6003W

 
NDB name  Hdg/Dist  Freq  Var  ID
BLAAK295/23.134403WIWJ .. .-- .---
HANCHEY061/25.222103WHYE .... -.-- .
LOWE064/29.526903WLOR .-.. --- .-.

Airport Services

Parking: tiedowns
Airframe service: NONE
Powerplant service: NONE

Runway Information

Runway 17/35

Dimensions: 2900 x 80 ft. / 884 x 24 m
Surface: asphalt/aggregate friction seal coat, in fair condition
Runway edge lights: medium intensity
Runway edge markings: MARKINGS ARE FADED.
RUNWAY 17  RUNWAY 35
Latitude: 31-36.249833N31-35.776000N
Longitude: 085-14.336667W085-14.260333W
Elevation: 463.1 ft.462.8 ft.
Traffic pattern: leftleft
Runway heading: 173 magnetic, 172 true353 magnetic, 352 true
Displaced threshold: 300 ft.no
Markings: basic, in poor conditionbasic, in poor condition
Obstructions: 27 ft. tree, 730 ft. from runway, 85 ft. left of centerline, 19:1 slope to clear
RY 17 APCH SLOPE 50:1 TO DSPLCD THLD.
26 ft. tree, 687 ft. from runway, 6 ft. left of centerline, 18:1 slope to clear

Airport Ownership and Management from official FAA records

Ownership: Publicly-owned
Owner: CITY OF ABBEVILLE
PO BOX 427
ABBEVILLE, AL 36310
Phone 334-585-6444
Manager: PAM WARD
PO BOX 427
ABBEVILLE, AL 36310
Phone 334-585-6444

Airport Operational Statistics

Aircraft based on the field: 1
Single engine airplanes: 1
    
Aircraft operations: avg 31/week *
75% military
25% transient general aviation
* for 12-month period ending 12 January 2018

Instrument Procedures

There are no published instrument procedures at 0J0.

Some nearby airports with instrument procedures:

0J6 - Headland Municipal Airport (15 nm S)
KDHN - Dothan Regional Airport (20 nm SW)
11A - Clayton Municipal Airport (21 nm NW)
KBIJ - Early County Airport (21 nm SE)
KEUF - Weedon Field Airport (22 nm N)
 
Loc | Ops | Rwys | IFR | FBO | Links
Com | Nav | Svcs | Stats | Notes

AirNav Hotels Sweepstakes
 
Area around 0J0 (Abbeville Municipal Airport)
 
Road maps at: MapQuest Bing Google
 
Aerial photo
WARNING: Photo may not be current or correct
Aerial photo of 0J0 (Abbeville Municipal Airport)
Do you have a better or more recent aerial photo of Abbeville Municipal Airport that you would like to share? If so, please send us your photo.

 
Sectional chart

 
Airport distance calculator
Flying to Abbeville Municipal Airport? Find the distance to fly.

From to 0J0

Sunrise and sunset
Times for 24-Apr-2018
 Local
(UTC-5)
 Zulu
(UTC)
Morning civil twilight05:3810:38
Sunrise06:0411:04
Sunset19:1500:15
Evening civil twilight19:4000:40

Current date and time
Zulu (UTC)  24-Apr-2018 15:17:44
Local (UTC-5)  24-Apr-2018 10:17:44
 
METAR
KDHN 
20nm SW 
241453Z 27009KT 10SM FEW021 19/12 A3000 RMK AO2 SLP153 T01890117 50004
KBIJ 
21nm SE 
241455Z AUTO 29005KT 10SM CLR 20/12 A2997 RMK AO2
KEUF 
22nm N 
241458Z AUTO 31006KT 10SM FEW025 SCT080 21/13 A2994 RMK AO2 SLP134 T02060128 50005 $
KHEY 
26nm SW 
241438Z AUTO 31004KT 10SM SCT018 18/13 A2996 RMK AO2 SLP146
KLOR 
30nm SW 
241408Z AUTO 29004KT 10SM SCT017 17/13 A2997 RMK AO2 SLP131
KOZR 
31nm SW 
241256Z AUTO 27007KT 10SM CLR 15/13 A2997 RMK AO2 SLP150 T01460125
KSXS 
34nm SW 
241443Z AUTO 31006KT 10SM BKN018 18/13 A2996 RMK AO2 BKN V SCT SLP146
KEDN 
38nm SW 
241455Z AUTO 31003KT 10SM BKN021 17/13 A2997 RMK AO2 T01730133
TAF
KDHN 
20nm SW 
241120Z 2412/2512 29007KT P6SM SKC FM241400 29010KT P6SM BKN025 FM241800 29012KT P6SM BKN035
NOTAMs
Click for the latest NOTAMs
NOTAMs are issued by the DoD/FAA and will open in a separate window not controlled by AirNav.

 

 
 

Aviation Businesses, Services, and Facilities

  
 Business Name 
 
 Contact 
 
 Services / Description 
 
Distance
 
Comments
  
Abbeville Municipal Airport no information available

If you are affiliated with Abbeville Municipal Airport and would like to show here your services, contact info, web link, logo, and more, click here
on airport  
   write
 

Would you like to see your business listed on this page?

 If your business provides an interesting product or service to pilots, flight crews, aircraft, or users of the Abbeville Municipal Airport, you should consider listing it here.  To start the listing process, click on the button below
 
Add a business
 

Other Pages about Abbeville Municipal Airport

Update a link
 
Copyright © AirNav, LLC. All rights reserved. Privacy Policy  Contact